sensor_id;sensor_type;location;lat;lon;timestamp;temperature;humidity
26579;DHT22;14227;47.674;19.320;2023-09-19T00:00:30;23.30;32.50
26579;DHT22;14227;47.674;19.320;2023-09-19T00:02:58;23.30;32.40
26579;DHT22;14227;47.674;19.320;2023-09-19T00:05:33;23.20;32.30
26579;DHT22;14227;47.674;19.320;2023-09-19T00:08:00;23.20;32.20
26579;DHT22;14227;47.674;19.320;2023-09-19T00:10:27;23.30;32.50
26579;DHT22;14227;47.674;19.320;2023-09-19T00:12:57;23.30;32.50
26579;DHT22;14227;47.674;19.320;2023-09-19T00:15:23;23.20;32.40
26579;DHT22;14227;47.674;19.320;2023-09-19T00:17:48;23.20;32.50
26579;DHT22;14227;47.674;19.320;2023-09-19T00:20:18;23.20;32.40
26579;DHT22;14227;47.674;19.320;2023-09-19T00:22:44;23.20;32.40
26579;DHT22;14227;47.674;19.320;2023-09-19T00:25:11;23.20;32.60
26579;DHT22;14227;47.674;19.320;2023-09-19T00:27:38;23.20;32.50
26579;DHT22;14227;47.674;19.320;2023-09-19T00:30:12;23.20;32.40
26579;DHT22;14227;47.674;19.320;2023-09-19T00:32:45;23.20;32.50
26579;DHT22;14227;47.674;19.320;2023-09-19T00:35:16;23.10;32.60
26579;DHT22;14227;47.674;19.320;2023-09-19T00:37:42;23.10;32.60
26579;DHT22;14227;47.674;19.320;2023-09-19T00:40:09;23.10;32.60
26579;DHT22;14227;47.674;19.320;2023-09-19T00:42:42;23.10;32.60
26579;DHT22;14227;47.674;19.320;2023-09-19T00:45:09;23.10;32.70
26579;DHT22;14227;47.674;19.320;2023-09-19T00:47:51;23.10;32.80
26579;DHT22;14227;47.674;19.320;2023-09-19T00:50:18;23.10;32.70
26579;DHT22;14227;47.674;19.320;2023-09-19T00:52:46;23.10;32.90
26579;DHT22;14227;47.674;19.320;2023-09-19T00:55:15;23.00;33.10
26579;DHT22;14227;47.674;19.320;2023-09-19T00:57:41;23.00;32.90
26579;DHT22;14227;47.674;19.320;2023-09-19T01:00:08;23.00;32.90
26579;DHT22;14227;47.674;19.320;2023-09-19T01:02:37;23.10;33.10
26579;DHT22;14227;47.674;19.320;2023-09-19T01:05:03;23.10;33.00
26579;DHT22;14227;47.674;19.320;2023-09-19T01:07:32;23.00;33.00
26579;DHT22;14227;47.674;19.320;2023-09-19T01:09:59;23.00;33.80
26579;DHT22;14227;47.674;19.320;2023-09-19T01:12:38;23.00;33.30
26579;DHT22;14227;47.674;19.320;2023-09-19T01:15:21;23.00;33.60
26579;DHT22;14227;47.674;19.320;2023-09-19T01:17:50;23.00;33.50
26579;DHT22;14227;47.674;19.320;2023-09-19T01:21:21;22.90;33.70
26579;DHT22;14227;47.674;19.320;2023-09-19T01:31:45;22.80;34.40
26579;DHT22;14227;47.674;19.320;2023-09-19T01:34:12;22.70;35.00
26579;DHT22;14227;47.674;19.320;2023-09-19T01:36:38;22.70;35.40
26579;DHT22;14227;47.674;19.320;2023-09-19T01:39:11;22.70;35.40
26579;DHT22;14227;47.674;19.320;2023-09-19T01:41:55;22.70;35.40
26579;DHT22;14227;47.674;19.320;2023-09-19T01:53:02;22.50;35.30
26579;DHT22;14227;47.674;19.320;2023-09-19T01:55:30;22.40;36.30
26579;DHT22;14227;47.674;19.320;2023-09-19T01:58:08;22.40;35.90
26579;DHT22;14227;47.674;19.320;2023-09-19T02:00:41;22.40;36.00
26579;DHT22;14227;47.674;19.320;2023-09-19T02:03:10;22.30;36.70
26579;DHT22;14227;47.674;19.320;2023-09-19T02:05:37;22.20;36.80
26579;DHT22;14227;47.674;19.320;2023-09-19T02:08:04;22.20;36.90
26579;DHT22;14227;47.674;19.320;2023-09-19T02:10:30;22.20;37.30
26579;DHT22;14227;47.674;19.320;2023-09-19T02:12:56;22.20;37.40
26579;DHT22;14227;47.674;19.320;2023-09-19T02:15:22;22.20;37.50
26579;DHT22;14227;47.674;19.320;2023-09-19T02:17:48;22.20;37.50
26579;DHT22;14227;47.674;19.320;2023-09-19T02:20:13;22.10;37.50
26579;DHT22;14227;47.674;19.320;2023-09-19T02:22:41;22.20;37.70
26579;DHT22;14227;47.674;19.320;2023-09-19T02:25:07;22.10;37.80
26579;DHT22;14227;47.674;19.320;2023-09-19T02:27:34;22.10;37.90
26579;DHT22;14227;47.674;19.320;2023-09-19T02:29:59;22.10;37.90
26579;DHT22;14227;47.674;19.320;2023-09-19T02:32:30;22.10;38.80
26579;DHT22;14227;47.674;19.320;2023-09-19T02:35:02;22.10;38.80
26579;DHT22;14227;47.674;19.320;2023-09-19T02:37:30;22.10;38.10
26579;DHT22;14227;47.674;19.320;2023-09-19T02:39:56;22.10;38.20
26579;DHT22;14227;47.674;19.320;2023-09-19T02:42:22;22.10;38.40
26579;DHT22;14227;47.674;19.320;2023-09-19T02:44:47;22.10;38.40
26579;DHT22;14227;47.674;19.320;2023-09-19T02:47:13;22.10;38.50
26579;DHT22;14227;47.674;19.320;2023-09-19T02:49:40;22.00;38.50
26579;DHT22;14227;47.674;19.320;2023-09-19T02:52:08;22.00;38.40
26579;DHT22;14227;47.674;19.320;2023-09-19T02:54:33;22.00;38.70
26579;DHT22;14227;47.674;19.320;2023-09-19T02:56:59;22.00;38.70
26579;DHT22;14227;47.674;19.320;2023-09-19T02:59:25;22.00;38.90
26579;DHT22;14227;47.674;19.320;2023-09-19T03:01:50;22.00;39.00
26579;DHT22;14227;47.674;19.320;2023-09-19T03:04:16;22.00;39.10
26579;DHT22;14227;47.674;19.320;2023-09-19T03:06:45;21.90;39.00
26579;DHT22;14227;47.674;19.320;2023-09-19T03:09:11;21.90;39.20
26579;DHT22;14227;47.674;19.320;2023-09-19T03:11:37;21.80;39.50
26579;DHT22;14227;47.674;19.320;2023-09-19T03:14:03;21.70;39.80
26579;DHT22;14227;47.674;19.320;2023-09-19T03:16:29;21.70;40.10
26579;DHT22;14227;47.674;19.320;2023-09-19T03:18:55;21.60;40.50
26579;DHT22;14227;47.674;19.320;2023-09-19T03:21:20;21.50;40.80
26579;DHT22;14227;47.674;19.320;2023-09-19T03:23:47;21.50;41.40
26579;DHT22;14227;47.674;19.320;2023-09-19T03:26:13;21.40;41.50
26579;DHT22;14227;47.674;19.320;2023-09-19T03:28:42;21.40;41.60
26579;DHT22;14227;47.674;19.320;2023-09-19T03:31:09;21.40;41.70
26579;DHT22;14227;47.674;19.320;2023-09-19T03:33:35;21.40;41.80
26579;DHT22;14227;47.674;19.320;2023-09-19T03:36:01;21.40;42.00
26579;DHT22;14227;47.674;19.320;2023-09-19T03:38:30;21.40;42.10
26579;DHT22;14227;47.674;19.320;2023-09-19T03:40:57;21.40;42.10
26579;DHT22;14227;47.674;19.320;2023-09-19T03:43:22;21.40;42.00
26579;DHT22;14227;47.674;19.320;2023-09-19T03:45:48;21.40;42.00
26579;DHT22;14227;47.674;19.320;2023-09-19T03:48:14;21.40;42.00
26579;DHT22;14227;47.674;19.320;2023-09-19T03:50:40;21.40;42.10
26579;DHT22;14227;47.674;19.320;2023-09-19T03:53:06;21.40;42.20
26579;DHT22;14227;47.674;19.320;2023-09-19T03:55:34;21.40;42.20
26579;DHT22;14227;47.674;19.320;2023-09-19T03:58:01;21.40;42.10
26579;DHT22;14227;47.674;19.320;2023-09-19T04:00:28;21.40;42.30
26579;DHT22;14227;47.674;19.320;2023-09-19T04:02:55;21.30;42.50
26579;DHT22;14227;47.674;19.320;2023-09-19T04:05:22;21.30;42.60
26579;DHT22;14227;47.674;19.320;2023-09-19T04:07:48;21.30;42.80
26579;DHT22;14227;47.674;19.320;2023-09-19T04:10:15;21.30;43.00
26579;DHT22;14227;47.674;19.320;2023-09-19T04:12:49;21.20;43.10
26579;DHT22;14227;47.674;19.320;2023-09-19T04:15:15;21.20;43.10
26579;DHT22;14227;47.674;19.320;2023-09-19T04:17:41;21.30;43.30
26579;DHT22;14227;47.674;19.320;2023-09-19T04:20:07;21.30;43.20
26579;DHT22;14227;47.674;19.320;2023-09-19T04:22:33;21.30;43.30
26579;DHT22;14227;47.674;19.320;2023-09-19T04:24:59;21.30;43.50
26579;DHT22;14227;47.674;19.320;2023-09-19T04:27:25;21.20;43.50
26579;DHT22;14227;47.674;19.320;2023-09-19T04:29:50;21.20;43.70
26579;DHT22;14227;47.674;19.320;2023-09-19T04:32:18;21.20;43.80
26579;DHT22;14227;47.674;19.320;2023-09-19T04:34:44;21.20;44.20
26579;DHT22;14227;47.674;19.320;2023-09-19T04:37:09;21.30;44.20
26579;DHT22;14227;47.674;19.320;2023-09-19T04:39:36;21.20;44.30
26579;DHT22;14227;47.674;19.320;2023-09-19T04:42:02;21.30;44.20
26579;DHT22;14227;47.674;19.320;2023-09-19T04:44:28;21.40;44.20
26579;DHT22;14227;47.674;19.320;2023-09-19T04:46:54;21.40;44.20
26579;DHT22;14227;47.674;19.320;2023-09-19T04:49:20;21.40;44.30
26579;DHT22;14227;47.674;19.320;2023-09-19T04:51:45;21.40;44.20
26579;DHT22;14227;47.674;19.320;2023-09-19T04:54:12;21.50;44.50
26579;DHT22;14227;47.674;19.320;2023-09-19T04:56:38;21.50;44.70
26579;DHT22;14227;47.674;19.320;2023-09-19T04:59:05;21.60;45.00
26579;DHT22;14227;47.674;19.320;2023-09-19T05:01:31;21.60;45.30
26579;DHT22;14227;47.674;19.320;2023-09-19T05:03:57;21.60;45.30
26579;DHT22;14227;47.674;19.320;2023-09-19T05:06:23;21.70;45.50
26579;DHT22;14227;47.674;19.320;2023-09-19T05:08:49;21.70;45.20
26579;DHT22;14227;47.674;19.320;2023-09-19T05:11:19;21.80;45.10
26579;DHT22;14227;47.674;19.320;2023-09-19T05:13:47;21.90;44.80
26579;DHT22;14227;47.674;19.320;2023-09-19T05:16:12;21.90;44.40
26579;DHT22;14227;47.674;19.320;2023-09-19T05:18:38;21.90;44.10
26579;DHT22;14227;47.674;19.320;2023-09-19T05:21:04;22.00;43.80
26579;DHT22;14227;47.674;19.320;2023-09-19T05:23:30;22.00;43.60
26579;DHT22;14227;47.674;19.320;2023-09-19T05:25:56;22.10;43.40
26579;DHT22;14227;47.674;19.320;2023-09-19T05:28:25;22.10;43.20
26579;DHT22;14227;47.674;19.320;2023-09-19T05:30:54;22.20;43.10
26579;DHT22;14227;47.674;19.320;2023-09-19T05:33:20;22.20;42.90
26579;DHT22;14227;47.674;19.320;2023-09-19T05:35:48;22.20;42.90
26579;DHT22;14227;47.674;19.320;2023-09-19T05:38:14;22.30;42.90
26579;DHT22;14227;47.674;19.320;2023-09-19T05:40:41;22.30;42.60
26579;DHT22;14227;47.674;19.320;2023-09-19T05:43:08;22.30;42.80
26579;DHT22;14227;47.674;19.320;2023-09-19T05:45:34;22.30;42.90
26579;DHT22;14227;47.674;19.320;2023-09-19T05:48:11;22.30;42.80
26579;DHT22;14227;47.674;19.320;2023-09-19T05:50:38;22.20;42.70
26579;DHT22;14227;47.674;19.320;2023-09-19T05:53:05;22.10;42.90
26579;DHT22;14227;47.674;19.320;2023-09-19T05:55:31;22.10;42.90
26579;DHT22;14227;47.674;19.320;2023-09-19T05:57:57;22.00;43.00
26579;DHT22;14227;47.674;19.320;2023-09-19T06:00:23;22.00;43.20
26579;DHT22;14227;47.674;19.320;2023-09-19T06:02:57;22.00;43.30
26579;DHT22;14227;47.674;19.320;2023-09-19T06:05:23;22.00;43.60
26579;DHT22;14227;47.674;19.320;2023-09-19T06:07:50;21.90;43.20
26579;DHT22;14227;47.674;19.320;2023-09-19T06:10:16;21.80;43.80
26579;DHT22;14227;47.674;19.320;2023-09-19T06:12:43;21.80;43.70
26579;DHT22;14227;47.674;19.320;2023-09-19T06:15:15;21.80;43.60
26579;DHT22;14227;47.674;19.320;2023-09-19T06:17:54;21.80;43.60
26579;DHT22;14227;47.674;19.320;2023-09-19T06:20:25;21.80;43.80
26579;DHT22;14227;47.674;19.320;2023-09-19T06:22:52;21.80;44.10
26579;DHT22;14227;47.674;19.320;2023-09-19T06:25:19;21.70;45.70
26579;DHT22;14227;47.674;19.320;2023-09-19T06:27:48;21.70;48.20
26579;DHT22;14227;47.674;19.320;2023-09-19T06:30:16;21.60;49.20
26579;DHT22;14227;47.674;19.320;2023-09-19T06:32:43;21.40;49.90
26579;DHT22;14227;47.674;19.320;2023-09-19T06:35:14;21.20;51.00
26579;DHT22;14227;47.674;19.320;2023-09-19T06:37:41;21.10;52.10
26579;DHT22;14227;47.674;19.320;2023-09-19T06:40:10;21.10;52.70
26579;DHT22;14227;47.674;19.320;2023-09-19T13:45:12;24.80;40.40
26579;DHT22;14227;47.674;19.320;2023-09-19T13:47:41;26.00;38.30
26579;DHT22;14227;47.674;19.320;2023-09-19T13:50:07;26.30;36.70
26579;DHT22;14227;47.674;19.320;2023-09-19T13:52:33;26.60;37.20
26579;DHT22;14227;47.674;19.320;2023-09-19T13:55:00;26.60;36.80
26579;DHT22;14227;47.674;19.320;2023-09-19T13:57:26;26.80;36.10
26579;DHT22;14227;47.674;19.320;2023-09-19T13:59:53;26.90;36.10
26579;DHT22;14227;47.674;19.320;2023-09-19T14:02:22;27.10;36.60
26579;DHT22;14227;47.674;19.320;2023-09-19T14:04:54;27.10;34.80
26579;DHT22;14227;47.674;19.320;2023-09-19T14:07:20;27.10;34.40
26579;DHT22;14227;47.674;19.320;2023-09-19T14:09:47;27.00;36.90
26579;DHT22;14227;47.674;19.320;2023-09-19T14:12:14;27.00;35.30
26579;DHT22;14227;47.674;19.320;2023-09-19T14:14:40;26.90;33.80
26579;DHT22;14227;47.674;19.320;2023-09-19T14:17:06;26.80;34.60
26579;DHT22;14227;47.674;19.320;2023-09-19T14:19:33;26.70;33.40
26579;DHT22;14227;47.674;19.320;2023-09-19T14:21:58;26.60;33.60
26579;DHT22;14227;47.674;19.320;2023-09-19T14:24:25;26.60;34.30
26579;DHT22;14227;47.674;19.320;2023-09-19T14:26:51;26.50;32.90
26579;DHT22;14227;47.674;19.320;2023-09-19T14:29:17;26.50;33.40
26579;DHT22;14227;47.674;19.320;2023-09-19T14:31:43;26.30;33.50
26579;DHT22;14227;47.674;19.320;2023-09-19T14:34:09;26.30;33.50
26579;DHT22;14227;47.674;19.320;2023-09-19T14:36:38;26.20;33.00
26579;DHT22;14227;47.674;19.320;2023-09-19T14:39:04;26.10;33.80
26579;DHT22;14227;47.674;19.320;2023-09-19T14:41:30;26.10;34.30
26579;DHT22;14227;47.674;19.320;2023-09-19T14:43:57;26.10;34.80
26579;DHT22;14227;47.674;19.320;2023-09-19T14:46:23;25.80;34.40
26579;DHT22;14227;47.674;19.320;2023-09-19T14:48:52;25.60;34.60
26579;DHT22;14227;47.674;19.320;2023-09-19T14:51:18;25.40;35.40
26579;DHT22;14227;47.674;19.320;2023-09-19T14:53:44;25.30;35.20
26579;DHT22;14227;47.674;19.320;2023-09-19T14:56:11;25.20;36.50
26579;DHT22;14227;47.674;19.320;2023-09-19T14:58:37;25.20;36.20
26579;DHT22;14227;47.674;19.320;2023-09-19T15:01:08;25.20;35.80
26579;DHT22;14227;47.674;19.320;2023-09-19T15:03:34;25.20;35.90
26579;DHT22;14227;47.674;19.320;2023-09-19T15:06:06;25.20;35.30
26579;DHT22;14227;47.674;19.320;2023-09-19T15:08:32;25.30;36.30
26579;DHT22;14227;47.674;19.320;2023-09-19T15:11:01;25.30;34.80
26579;DHT22;14227;47.674;19.320;2023-09-19T15:13:31;25.40;34.30
26579;DHT22;14227;47.674;19.320;2023-09-19T15:16:06;25.60;33.60
26579;DHT22;14227;47.674;19.320;2023-09-19T15:18:35;26.00;33.60
26579;DHT22;14227;47.674;19.320;2023-09-19T15:21:06;26.20;32.00
26579;DHT22;14227;47.674;19.320;2023-09-19T15:23:36;26.10;31.50
26579;DHT22;14227;47.674;19.320;2023-09-19T15:26:05;25.90;31.80
26579;DHT22;14227;47.674;19.320;2023-09-19T15:28:32;25.80;32.40
26579;DHT22;14227;47.674;19.320;2023-09-19T15:31:03;25.50;32.70
26579;DHT22;14227;47.674;19.320;2023-09-19T15:33:30;25.30;34.40
26579;DHT22;14227;47.674;19.320;2023-09-19T15:38:31;24.90;35.20
26579;DHT22;14227;47.674;19.320;2023-09-19T15:40:58;24.70;35.50
26579;DHT22;14227;47.674;19.320;2023-09-19T15:43:25;24.40;37.00
26579;DHT22;14227;47.674;19.320;2023-09-19T15:45:50;24.20;36.80
26579;DHT22;14227;47.674;19.320;2023-09-19T15:48:17;24.00;37.50
26579;DHT22;14227;47.674;19.320;2023-09-19T15:50:44;23.70;38.10
26579;DHT22;14227;47.674;19.320;2023-09-19T15:53:10;23.50;38.50
26579;DHT22;14227;47.674;19.320;2023-09-19T15:55:39;23.40;38.80
26579;DHT22;14227;47.674;19.320;2023-09-19T15:58:08;23.20;39.50
26579;DHT22;14227;47.674;19.320;2023-09-19T16:00:33;23.00;39.70
26579;DHT22;14227;47.674;19.320;2023-09-19T16:03:02;22.90;41.00
26579;DHT22;14227;47.674;19.320;2023-09-19T16:05:34;22.70;40.20
26579;DHT22;14227;47.674;19.320;2023-09-19T16:08:03;22.70;41.80
26579;DHT22;14227;47.674;19.320;2023-09-19T16:10:29;22.50;42.50
26579;DHT22;14227;47.674;19.320;2023-09-19T16:12:55;22.40;43.70
26579;DHT22;14227;47.674;19.320;2023-09-19T16:15:21;22.30;44.40
26579;DHT22;14227;47.674;19.320;2023-09-19T16:17:46;22.20;44.20
26579;DHT22;14227;47.674;19.320;2023-09-19T16:20:12;22.10;44.50
26579;DHT22;14227;47.674;19.320;2023-09-19T16:22:39;22.00;45.20
26579;DHT22;14227;47.674;19.320;2023-09-19T16:25:06;21.90;44.80
26579;DHT22;14227;47.674;19.320;2023-09-19T16:27:31;21.80;45.90
26579;DHT22;14227;47.674;19.320;2023-09-19T16:29:57;21.70;46.80
26579;DHT22;14227;47.674;19.320;2023-09-19T16:32:23;21.60;47.60
26579;DHT22;14227;47.674;19.320;2023-09-19T16:34:48;21.40;48.20
26579;DHT22;14227;47.674;19.320;2023-09-19T16:37:14;21.30;48.60
26579;DHT22;14227;47.674;19.320;2023-09-19T16:39:40;21.20;49.00
26579;DHT22;14227;47.674;19.320;2023-09-19T16:42:07;21.10;49.80
26579;DHT22;14227;47.674;19.320;2023-09-19T16:44:33;21.00;50.50
26579;DHT22;14227;47.674;19.320;2023-09-19T16:46:59;20.90;50.80
26579;DHT22;14227;47.674;19.320;2023-09-19T16:49:28;20.70;50.90
26579;DHT22;14227;47.674;19.320;2023-09-19T16:51:54;20.60;51.40
26579;DHT22;14227;47.674;19.320;2023-09-19T16:54:20;20.50;51.90
26579;DHT22;14227;47.674;19.320;2023-09-19T16:56:46;20.50;51.80
26579;DHT22;14227;47.674;19.320;2023-09-19T16:59:11;20.40;51.90
26579;DHT22;14227;47.674;19.320;2023-09-19T17:01:38;20.30;52.30
26579;DHT22;14227;47.674;19.320;2023-09-19T17:04:04;20.20;52.70
26579;DHT22;14227;47.674;19.320;2023-09-19T17:06:31;20.10;53.20
26579;DHT22;14227;47.674;19.320;2023-09-19T17:08:57;20.00;53.80
26579;DHT22;14227;47.674;19.320;2023-09-19T17:11:22;19.80;54.80
26579;DHT22;14227;47.674;19.320;2023-09-19T17:13:50;19.70;54.70
26579;DHT22;14227;47.674;19.320;2023-09-19T17:16:18;19.60;55.20
26579;DHT22;14227;47.674;19.320;2023-09-19T17:18:46;19.50;55.90
26579;DHT22;14227;47.674;19.320;2023-09-19T17:21:15;19.40;55.90
26579;DHT22;14227;47.674;19.320;2023-09-19T17:23:41;19.20;56.20
26579;DHT22;14227;47.674;19.320;2023-09-19T17:26:12;19.10;56.20
26579;DHT22;14227;47.674;19.320;2023-09-19T17:28:40;19.00;57.20
26579;DHT22;14227;47.674;19.320;2023-09-19T17:31:10;18.90;58.00
26579;DHT22;14227;47.674;19.320;2023-09-19T17:33:42;18.80;58.70
26579;DHT22;14227;47.674;19.320;2023-09-19T17:38:45;18.70;60.00
26579;DHT22;14227;47.674;19.320;2023-09-19T17:41:12;18.60;59.90
26579;DHT22;14227;47.674;19.320;2023-09-19T17:43:41;18.50;60.30
26579;DHT22;14227;47.674;19.320;2023-09-19T17:46:16;18.50;60.50
26579;DHT22;14227;47.674;19.320;2023-09-19T17:48:47;18.40;61.10
26579;DHT22;14227;47.674;19.320;2023-09-19T17:51:14;18.40;61.50
26579;DHT22;14227;47.674;19.320;2023-09-19T17:53:41;18.40;61.10
26579;DHT22;14227;47.674;19.320;2023-09-19T17:56:08;18.30;61.10
26579;DHT22;14227;47.674;19.320;2023-09-19T17:58:35;18.20;61.20
26579;DHT22;14227;47.674;19.320;2023-09-19T18:01:09;18.10;61.60
26579;DHT22;14227;47.674;19.320;2023-09-19T18:03:35;18.10;62.00
26579;DHT22;14227;47.674;19.320;2023-09-19T18:06:02;18.00;62.80
26579;DHT22;14227;47.674;19.320;2023-09-19T18:08:28;18.00;63.40
26579;DHT22;14227;47.674;19.320;2023-09-19T18:10:54;17.90;63.60
26579;DHT22;14227;47.674;19.320;2023-09-19T18:13:20;17.80;64.10
26579;DHT22;14227;47.674;19.320;2023-09-19T18:15:46;17.80;64.70
26579;DHT22;14227;47.674;19.320;2023-09-19T18:18:12;17.80;64.40
26579;DHT22;14227;47.674;19.320;2023-09-19T18:20:39;17.80;64.90
26579;DHT22;14227;47.674;19.320;2023-09-19T18:23:07;17.70;65.00
26579;DHT22;14227;47.674;19.320;2023-09-19T18:25:39;17.70;65.50
26579;DHT22;14227;47.674;19.320;2023-09-19T18:28:06;17.70;66.20
26579;DHT22;14227;47.674;19.320;2023-09-19T18:30:32;17.70;66.20
26579;DHT22;14227;47.674;19.320;2023-09-19T18:33:00;17.70;66.70
26579;DHT22;14227;47.674;19.320;2023-09-19T18:35:26;17.70;66.40
26579;DHT22;14227;47.674;19.320;2023-09-19T18:37:55;17.70;66.70
26579;DHT22;14227;47.674;19.320;2023-09-19T18:40:21;17.70;66.90
26579;DHT22;14227;47.674;19.320;2023-09-19T18:42:47;17.70;66.90
26579;DHT22;14227;47.674;19.320;2023-09-19T18:45:13;17.70;66.90
26579;DHT22;14227;47.674;19.320;2023-09-19T18:47:40;17.60;65.50
26579;DHT22;14227;47.674;19.320;2023-09-19T18:50:06;17.60;65.80
26579;DHT22;14227;47.674;19.320;2023-09-19T18:52:38;17.50;66.40
26579;DHT22;14227;47.674;19.320;2023-09-19T18:55:08;17.50;66.00
26579;DHT22;14227;47.674;19.320;2023-09-19T18:57:40;17.40;66.10
26579;DHT22;14227;47.674;19.320;2023-09-19T19:00:07;17.40;66.70
26579;DHT22;14227;47.674;19.320;2023-09-19T19:02:36;17.30;66.00
26579;DHT22;14227;47.674;19.320;2023-09-19T19:05:04;17.20;65.90
26579;DHT22;14227;47.674;19.320;2023-09-19T19:07:30;17.20;65.60
26579;DHT22;14227;47.674;19.320;2023-09-19T19:09:55;17.00;65.00
26579;DHT22;14227;47.674;19.320;2023-09-19T19:12:21;17.00;65.80
26579;DHT22;14227;47.674;19.320;2023-09-19T19:14:48;16.90;66.90
26579;DHT22;14227;47.674;19.320;2023-09-19T19:17:14;16.90;66.90
26579;DHT22;14227;47.674;19.320;2023-09-19T19:19:45;16.80;67.10
26579;DHT22;14227;47.674;19.320;2023-09-19T19:22:11;16.70;67.50
26579;DHT22;14227;47.674;19.320;2023-09-19T19:24:37;16.70;68.90
26579;DHT22;14227;47.674;19.320;2023-09-19T19:27:03;16.70;69.60
26579;DHT22;14227;47.674;19.320;2023-09-19T19:29:28;16.60;69.00
26579;DHT22;14227;47.674;19.320;2023-09-19T19:31:54;16.50;67.60
26579;DHT22;14227;47.674;19.320;2023-09-19T19:34:21;16.40;66.50
26579;DHT22;14227;47.674;19.320;2023-09-19T19:36:47;16.30;67.30
26579;DHT22;14227;47.674;19.320;2023-09-19T19:39:12;16.20;66.90
26579;DHT22;14227;47.674;19.320;2023-09-19T19:41:38;16.10;67.50
26579;DHT22;14227;47.674;19.320;2023-09-19T19:44:04;16.00;66.70
26579;DHT22;14227;47.674;19.320;2023-09-19T19:46:30;16.00;67.30
26579;DHT22;14227;47.674;19.320;2023-09-19T19:48:56;15.90;68.20
26579;DHT22;14227;47.674;19.320;2023-09-19T19:51:23;15.80;68.20
26579;DHT22;14227;47.674;19.320;2023-09-19T19:53:49;15.70;68.10
26579;DHT22;14227;47.674;19.320;2023-09-19T19:56:15;15.70;67.80
26579;DHT22;14227;47.674;19.320;2023-09-19T19:58:41;15.60;68.80
26579;DHT22;14227;47.674;19.320;2023-09-19T20:01:07;15.60;68.70
26579;DHT22;14227;47.674;19.320;2023-09-19T20:03:34;15.50;68.80
26579;DHT22;14227;47.674;19.320;2023-09-19T20:06:03;15.40;68.70
26579;DHT22;14227;47.674;19.320;2023-09-19T20:08:29;15.30;68.60
26579;DHT22;14227;47.674;19.320;2023-09-19T20:11:06;15.30;69.40
26579;DHT22;14227;47.674;19.320;2023-09-19T20:13:32;15.20;68.50
26579;DHT22;14227;47.674;19.320;2023-09-19T20:15:58;15.20;68.00
26579;DHT22;14227;47.674;19.320;2023-09-19T20:18:25;15.10;68.60
26579;DHT22;14227;47.674;19.320;2023-09-19T20:20:52;15.00;69.30
26579;DHT22;14227;47.674;19.320;2023-09-19T20:23:20;15.00;68.80
26579;DHT22;14227;47.674;19.320;2023-09-19T20:25:47;15.00;70.30
26579;DHT22;14227;47.674;19.320;2023-09-19T20:28:13;15.00;71.10
26579;DHT22;14227;47.674;19.320;2023-09-19T20:30:41;14.90;72.20
26579;DHT22;14227;47.674;19.320;2023-09-19T20:33:10;15.00;72.40
26579;DHT22;14227;47.674;19.320;2023-09-19T20:35:39;15.00;71.30
26579;DHT22;14227;47.674;19.320;2023-09-19T20:38:06;14.90;70.20
26579;DHT22;14227;47.674;19.320;2023-09-19T20:40:34;14.90;70.30
26579;DHT22;14227;47.674;19.320;2023-09-19T20:43:02;14.90;70.20
26579;DHT22;14227;47.674;19.320;2023-09-19T20:45:27;14.80;69.10
26579;DHT22;14227;47.674;19.320;2023-09-19T20:47:53;14.80;70.10
26579;DHT22;14227;47.674;19.320;2023-09-19T20:50:19;14.80;71.10
26579;DHT22;14227;47.674;19.320;2023-09-19T20:52:45;14.70;70.20
26579;DHT22;14227;47.674;19.320;2023-09-19T20:55:11;14.70;70.00
26579;DHT22;14227;47.674;19.320;2023-09-19T20:57:37;14.60;70.40
26579;DHT22;14227;47.674;19.320;2023-09-19T21:00:07;14.60;69.90
26579;DHT22;14227;47.674;19.320;2023-09-19T21:02:35;14.60;72.40
26579;DHT22;14227;47.674;19.320;2023-09-19T21:05:02;14.50;72.80
26579;DHT22;14227;47.674;19.320;2023-09-19T21:07:28;14.50;72.20
26579;DHT22;14227;47.674;19.320;2023-09-19T21:09:56;14.50;71.20
26579;DHT22;14227;47.674;19.320;2023-09-19T21:12:22;14.50;72.00
26579;DHT22;14227;47.674;19.320;2023-09-19T21:14:48;14.40;71.90
26579;DHT22;14227;47.674;19.320;2023-09-19T21:17:13;14.40;71.20
26579;DHT22;14227;47.674;19.320;2023-09-19T21:19:39;14.40;72.50
26579;DHT22;14227;47.674;19.320;2023-09-19T21:22:05;14.40;72.60
26579;DHT22;14227;47.674;19.320;2023-09-19T21:24:31;14.30;72.30
26579;DHT22;14227;47.674;19.320;2023-09-19T21:26:58;14.30;73.10
26579;DHT22;14227;47.674;19.320;2023-09-19T21:29:30;14.30;72.90
26579;DHT22;14227;47.674;19.320;2023-09-19T21:31:56;14.30;73.10
26579;DHT22;14227;47.674;19.320;2023-09-19T21:34:23;14.30;73.30
26579;DHT22;14227;47.674;19.320;2023-09-19T21:36:58;14.30;73.80
26579;DHT22;14227;47.674;19.320;2023-09-19T21:39:24;14.30;73.20
26579;DHT22;14227;47.674;19.320;2023-09-19T21:41:50;14.30;73.90
26579;DHT22;14227;47.674;19.320;2023-09-19T21:44:15;14.30;74.30
26579;DHT22;14227;47.674;19.320;2023-09-19T21:46:41;14.30;74.30
26579;DHT22;14227;47.674;19.320;2023-09-19T21:49:07;14.30;73.90
26579;DHT22;14227;47.674;19.320;2023-09-19T21:51:32;14.40;73.30
26579;DHT22;14227;47.674;19.320;2023-09-19T21:53:59;14.40;73.10
26579;DHT22;14227;47.674;19.320;2023-09-19T21:56:27;14.40;73.40
26579;DHT22;14227;47.674;19.320;2023-09-19T21:58:53;14.40;73.10
26579;DHT22;14227;47.674;19.320;2023-09-19T22:01:20;14.40;73.30
26579;DHT22;14227;47.674;19.320;2023-09-19T22:03:51;14.40;74.40
26579;DHT22;14227;47.674;19.320;2023-09-19T22:06:17;14.40;75.30
26579;DHT22;14227;47.674;19.320;2023-09-19T22:08:44;14.40;75.10
26579;DHT22;14227;47.674;19.320;2023-09-19T22:11:12;14.40;73.60
26579;DHT22;14227;47.674;19.320;2023-09-19T22:13:41;14.40;73.20
26579;DHT22;14227;47.674;19.320;2023-09-19T22:16:09;14.30;72.30
26579;DHT22;14227;47.674;19.320;2023-09-19T22:18:35;14.30;71.70
26579;DHT22;14227;47.674;19.320;2023-09-19T22:21:02;14.20;71.00
26579;DHT22;14227;47.674;19.320;2023-09-19T22:23:35;14.10;71.30
26579;DHT22;14227;47.674;19.320;2023-09-19T22:26:03;14.10;71.10
26579;DHT22;14227;47.674;19.320;2023-09-19T22:28:33;14.10;70.80
26579;DHT22;14227;47.674;19.320;2023-09-19T22:30:59;13.90;70.00
26579;DHT22;14227;47.674;19.320;2023-09-19T22:33:27;13.90;70.20
26579;DHT22;14227;47.674;19.320;2023-09-19T22:35:54;13.80;69.20
26579;DHT22;14227;47.674;19.320;2023-09-19T22:38:22;13.80;70.50
26579;DHT22;14227;47.674;19.320;2023-09-19T22:40:48;13.70;70.80